Aérodrome :
LOGIN :

S'inscrire | Disclaimer

   EN    FR    IT 

 










Légende :    VFR   VFR Marginal   IFR   IFR Intensif   IFR Très Intensif
Visi : 
Plafond : 
>= 8 km
>= 3000ft
5 à 8 km
1000 à 3000 ft
1500m à 5 km
500 à 1000 ft
800 à 1500m
200 à 500 ft
< 800m
< 200 ft
Symboles :   Orages  Brouillard  Fortes neiges  Fortes précipitations  Vent > 20 kt
SIGMETs :   Divers  Orages  Givrage  Turbulence  Onde Orograph.  Cendres Volcan.







- Altitude de l'aérodrome : 1830 ft


EBLB - Butgenbach Elsenborn

DERNIER METAR :
  • 161854Z AUTO VRB01KT 4000 BR SCT160/// BKN190/// 10/07 Q1021 GRN

METARs EXPIRÉS :
  • 161833Z AUTO 00000KT 3100 BR FEW160/// BKN190/// 11/07 Q1021 YLO
  • 161825Z AUTO VRB01KT 4700 BR FEW160/// BKN190/// 11/07 Q1021 GRN
  • 161815Z AUTO VRB01KT 4700 BKN190/// 12/07 Q1021 GRN
  • 161809Z AUTO VRB01KT 6000 BKN190/// 12/07 Q1021 WHT
  • 161755Z AUTO VRB01KT 8000 BKN190/// 12/07 Q1021 BLU
  • 161725Z AUTO VRB01KT 9999 BKN190/// 13/07 Q1020 BLU
  • 161655Z AUTO VRB01KT 9999 BKN190/// 15/07 Q1020 BLU
  • 161625Z AUTO VRB01KT 9999 FEW200/// 17/07 Q1020 BLU
  • 161555Z AUTO VRB01KT 9999 NCD 19/06 Q1020 BLU

Prévision TAF périmée.
Pas de NOTAMs connus pour ce terrain.



MET'MAP, la Météo Aéronautique d'un coup d'oeil ! - Copyright ORBIFLY Décembre 2007 - Disclaimer

ORBIFLY MET'MAP TEAM :

Programmation & Développement : Alexandra Zaïnal
Conception & Développement : Baudouin d'Aumeries
Co-Programmation & Développement : Marc-Olivier Méhu
Soutien technique & logistique : Manuel Goepfert

Contact : metmap@orbifly.com




SOURCES & CREDITS :

   NOAA